Earby, United Kingdom
Current Conditions -  °F | °C
As of 8:50 AM on Friday 21 Nov 2014 (Local Time) from EGNM Reporting Station
Haze Haze  
Wind Chill:   Ceiling: 2500
Heat Index:   Visibility: 2.1mi
Dew Point:   Wind: 8mph
Humidity: 93%   Direction: 120°ESE
Pressure: 30.12"   Gusts: NA
Location:  53.92°N, 2.14°W
Report Text: EGNM 210850Z 12007KT 3500 BR BKN025 06/05 Q1020
Loading
Personal Weather Stations






























Interactive Weather Map New forecast layout! Learn more

10-Day Weather Forecast

Advertisements
Track Severe Weather on mobile